sensor_id;sensor_type;location;lat;lon;timestamp;temperature;humidity
23746;DHT22;12053;48.878;9.632;2023-08-08T00:00:57;11.80;99.90
23746;DHT22;12053;48.878;9.632;2023-08-08T00:03:25;11.70;99.90
23746;DHT22;12053;48.878;9.632;2023-08-08T00:05:52;11.70;99.90
23746;DHT22;12053;48.878;9.632;2023-08-08T00:08:19;11.70;99.90
23746;DHT22;12053;48.878;9.632;2023-08-08T00:10:45;11.60;99.90
23746;DHT22;12053;48.878;9.632;2023-08-08T00:13:12;11.60;99.90
23746;DHT22;12053;48.878;9.632;2023-08-08T00:15:39;11.60;99.90
23746;DHT22;12053;48.878;9.632;2023-08-08T00:18:06;11.50;99.90
23746;DHT22;12053;48.878;9.632;2023-08-08T00:20:32;11.50;99.90
23746;DHT22;12053;48.878;9.632;2023-08-08T00:23:00;11.40;99.90
23746;DHT22;12053;48.878;9.632;2023-08-08T00:25:27;11.40;99.90
23746;DHT22;12053;48.878;9.632;2023-08-08T00:27:53;11.30;99.90
23746;DHT22;12053;48.878;9.632;2023-08-08T00:30:20;11.40;99.90
23746;DHT22;12053;48.878;9.632;2023-08-08T00:32:47;11.40;99.90
23746;DHT22;12053;48.878;9.632;2023-08-08T00:35:14;11.30;99.90
23746;DHT22;12053;48.878;9.632;2023-08-08T00:37:41;11.30;99.90
23746;DHT22;12053;48.878;9.632;2023-08-08T00:40:08;11.30;99.90
23746;DHT22;12053;48.878;9.632;2023-08-08T00:42:34;11.30;99.90
23746;DHT22;12053;48.878;9.632;2023-08-08T00:45:01;11.30;99.90
23746;DHT22;12053;48.878;9.632;2023-08-08T00:47:34;11.30;99.90
23746;DHT22;12053;48.878;9.632;2023-08-08T00:50:02;11.30;99.90
23746;DHT22;12053;48.878;9.632;2023-08-08T00:52:29;11.30;99.90
23746;DHT22;12053;48.878;9.632;2023-08-08T00:54:57;11.40;99.90
23746;DHT22;12053;48.878;9.632;2023-08-08T00:57:24;11.30;99.90
23746;DHT22;12053;48.878;9.632;2023-08-08T00:59:51;11.40;99.90
23746;DHT22;12053;48.878;9.632;2023-08-08T01:02:18;11.40;99.90
23746;DHT22;12053;48.878;9.632;2023-08-08T01:04:45;11.50;99.90
23746;DHT22;12053;48.878;9.632;2023-08-08T01:07:25;11.50;99.90
23746;DHT22;12053;48.878;9.632;2023-08-08T01:10:01;11.60;99.90
23746;DHT22;12053;48.878;9.632;2023-08-08T01:12:39;11.60;99.90
23746;DHT22;12053;48.878;9.632;2023-08-08T01:15:07;11.60;99.90
23746;DHT22;12053;48.878;9.632;2023-08-08T01:17:35;11.60;99.90
23746;DHT22;12053;48.878;9.632;2023-08-08T01:20:04;11.60;99.90
23746;DHT22;12053;48.878;9.632;2023-08-08T01:22:40;11.60;99.90
23746;DHT22;12053;48.878;9.632;2023-08-08T01:25:09;11.60;99.90
23746;DHT22;12053;48.878;9.632;2023-08-08T01:27:37;11.60;99.90
23746;DHT22;12053;48.878;9.632;2023-08-08T01:30:04;11.60;99.90
23746;DHT22;12053;48.878;9.632;2023-08-08T01:32:33;11.60;99.90
23746;DHT22;12053;48.878;9.632;2023-08-08T01:35:00;11.60;99.90
23746;DHT22;12053;48.878;9.632;2023-08-08T01:37:33;11.70;99.90
23746;DHT22;12053;48.878;9.632;2023-08-08T01:40:01;11.60;99.90
23746;DHT22;12053;48.878;9.632;2023-08-08T01:42:29;11.60;99.90
23746;DHT22;12053;48.878;9.632;2023-08-08T01:44:55;11.70;99.90
23746;DHT22;12053;48.878;9.632;2023-08-08T01:47:23;11.70;99.90
23746;DHT22;12053;48.878;9.632;2023-08-08T01:49:49;11.60;99.90
23746;DHT22;12053;48.878;9.632;2023-08-08T01:52:16;11.70;99.90
23746;DHT22;12053;48.878;9.632;2023-08-08T01:54:43;11.70;99.90
23746;DHT22;12053;48.878;9.632;2023-08-08T01:57:10;11.80;99.90
23746;DHT22;12053;48.878;9.632;2023-08-08T01:59:36;11.80;99.90
23746;DHT22;12053;48.878;9.632;2023-08-08T02:02:03;11.80;99.90
23746;DHT22;12053;48.878;9.632;2023-08-08T02:04:30;11.80;99.90
23746;DHT22;12053;48.878;9.632;2023-08-08T02:06:57;11.80;99.90
23746;DHT22;12053;48.878;9.632;2023-08-08T02:09:24;11.80;99.90
23746;DHT22;12053;48.878;9.632;2023-08-08T02:11:50;11.80;99.90
23746;DHT22;12053;48.878;9.632;2023-08-08T02:14:17;11.80;99.90
23746;DHT22;12053;48.878;9.632;2023-08-08T02:16:44;11.80;99.90
23746;DHT22;12053;48.878;9.632;2023-08-08T02:19:11;11.90;99.90
23746;DHT22;12053;48.878;9.632;2023-08-08T02:21:37;11.80;99.90
23746;DHT22;12053;48.878;9.632;2023-08-08T02:24:04;11.80;99.90
23746;DHT22;12053;48.878;9.632;2023-08-08T02:26:31;11.90;99.90
23746;DHT22;12053;48.878;9.632;2023-08-08T02:28:58;11.80;99.90
23746;DHT22;12053;48.878;9.632;2023-08-08T02:31:24;11.90;99.90
23746;DHT22;12053;48.878;9.632;2023-08-08T02:33:51;11.90;99.90
23746;DHT22;12053;48.878;9.632;2023-08-08T05:13:24;11.90;99.90
23746;DHT22;12053;48.878;9.632;2023-08-08T05:15:51;12.50;99.90
23746;DHT22;12053;48.878;9.632;2023-08-08T05:18:18;12.50;99.90
23746;DHT22;12053;48.878;9.632;2023-08-08T05:20:44;12.40;99.90
23746;DHT22;12053;48.878;9.632;2023-08-08T05:23:11;12.40;99.90
23746;DHT22;12053;48.878;9.632;2023-08-08T05:25:38;12.30;99.90
23746;DHT22;12053;48.878;9.632;2023-08-08T05:28:05;12.40;99.90
23746;DHT22;12053;48.878;9.632;2023-08-08T05:30:32;12.40;99.90
23746;DHT22;12053;48.878;9.632;2023-08-08T05:32:59;12.80;99.90
23746;DHT22;12053;48.878;9.632;2023-08-08T05:35:25;13.00;99.90
23746;DHT22;12053;48.878;9.632;2023-08-08T05:37:52;13.30;99.90
23746;DHT22;12053;48.878;9.632;2023-08-08T05:40:19;13.30;99.90
23746;DHT22;12053;48.878;9.632;2023-08-08T05:42:46;13.20;99.90
23746;DHT22;12053;48.878;9.632;2023-08-08T05:45:12;13.40;99.90
23746;DHT22;12053;48.878;9.632;2023-08-08T05:47:39;13.50;99.90
23746;DHT22;12053;48.878;9.632;2023-08-08T05:50:06;13.70;99.90
23746;DHT22;12053;48.878;9.632;2023-08-08T05:52:33;13.70;99.90
23746;DHT22;12053;48.878;9.632;2023-08-08T05:55:00;14.20;99.90
23746;DHT22;12053;48.878;9.632;2023-08-08T05:57:27;14.30;99.90
23746;DHT22;12053;48.878;9.632;2023-08-08T05:59:53;14.00;99.90
23746;DHT22;12053;48.878;9.632;2023-08-08T06:02:20;13.60;99.90
23746;DHT22;12053;48.878;9.632;2023-08-08T06:04:47;13.50;99.90
23746;DHT22;12053;48.878;9.632;2023-08-08T06:07:14;13.70;99.90
23746;DHT22;12053;48.878;9.632;2023-08-08T06:09:40;13.70;99.90
23746;DHT22;12053;48.878;9.632;2023-08-08T06:12:08;13.60;99.90
23746;DHT22;12053;48.878;9.632;2023-08-08T06:14:34;13.50;99.90
23746;DHT22;12053;48.878;9.632;2023-08-08T06:17:02;13.70;99.90
23746;DHT22;12053;48.878;9.632;2023-08-08T06:19:29;14.30;99.90
23746;DHT22;12053;48.878;9.632;2023-08-08T06:21:55;14.50;99.90
23746;DHT22;12053;48.878;9.632;2023-08-08T06:24:23;14.10;99.90
23746;DHT22;12053;48.878;9.632;2023-08-08T06:26:52;13.80;99.90
23746;DHT22;12053;48.878;9.632;2023-08-08T06:29:20;13.80;99.90
23746;DHT22;12053;48.878;9.632;2023-08-08T06:31:47;14.20;99.90
23746;DHT22;12053;48.878;9.632;2023-08-08T06:34:14;14.10;99.90
23746;DHT22;12053;48.878;9.632;2023-08-08T06:36:41;14.90;99.90
23746;DHT22;12053;48.878;9.632;2023-08-08T06:39:08;14.90;99.90
23746;DHT22;12053;48.878;9.632;2023-08-08T06:41:35;16.20;99.90
23746;DHT22;12053;48.878;9.632;2023-08-08T06:44:02;16.00;99.90
23746;DHT22;12053;48.878;9.632;2023-08-08T06:46:28;16.00;99.90
23746;DHT22;12053;48.878;9.632;2023-08-08T06:48:55;16.60;99.90
23746;DHT22;12053;48.878;9.632;2023-08-08T06:51:25;16.60;99.90
23746;DHT22;12053;48.878;9.632;2023-08-08T06:53:52;16.30;99.90
23746;DHT22;12053;48.878;9.632;2023-08-08T06:56:19;17.10;99.90
23746;DHT22;12053;48.878;9.632;2023-08-08T06:58:46;17.80;99.90
23746;DHT22;12053;48.878;9.632;2023-08-08T07:01:12;17.50;99.90
23746;DHT22;12053;48.878;9.632;2023-08-08T07:03:40;18.50;99.90
23746;DHT22;12053;48.878;9.632;2023-08-08T07:06:07;18.60;99.90
23746;DHT22;12053;48.878;9.632;2023-08-08T07:08:34;17.80;99.90
23746;DHT22;12053;48.878;9.632;2023-08-08T07:11:01;18.10;99.90
23746;DHT22;12053;48.878;9.632;2023-08-08T07:13:27;19.20;99.90
23746;DHT22;12053;48.878;9.632;2023-08-08T07:15:54;18.50;99.90
23746;DHT22;12053;48.878;9.632;2023-08-08T07:18:21;19.00;99.90
23746;DHT22;12053;48.878;9.632;2023-08-08T07:20:48;18.90;99.90
23746;DHT22;12053;48.878;9.632;2023-08-08T07:23:16;18.80;99.90
23746;DHT22;12053;48.878;9.632;2023-08-08T07:25:43;19.70;99.90
23746;DHT22;12053;48.878;9.632;2023-08-08T07:28:10;19.30;99.90
23746;DHT22;12053;48.878;9.632;2023-08-08T07:30:37;19.00;99.90
23746;DHT22;12053;48.878;9.632;2023-08-08T07:33:03;18.80;99.90
23746;DHT22;12053;48.878;9.632;2023-08-08T07:35:30;18.70;99.90
23746;DHT22;12053;48.878;9.632;2023-08-08T07:37:57;19.40;99.90
23746;DHT22;12053;48.878;9.632;2023-08-08T07:40:24;20.20;99.90
23746;DHT22;12053;48.878;9.632;2023-08-08T07:42:50;19.60;99.90
23746;DHT22;12053;48.878;9.632;2023-08-08T07:45:17;20.00;99.90
23746;DHT22;12053;48.878;9.632;2023-08-08T07:47:45;20.70;99.90
23746;DHT22;12053;48.878;9.632;2023-08-08T07:50:12;20.10;99.90
23746;DHT22;12053;48.878;9.632;2023-08-08T07:52:39;20.00;99.90
23746;DHT22;12053;48.878;9.632;2023-08-08T07:55:07;19.30;99.90
23746;DHT22;12053;48.878;9.632;2023-08-08T07:57:33;19.70;99.90
23746;DHT22;12053;48.878;9.632;2023-08-08T08:00:02;18.70;99.90
23746;DHT22;12053;48.878;9.632;2023-08-08T08:02:35;19.20;99.90
23746;DHT22;12053;48.878;9.632;2023-08-08T08:05:02;18.80;99.90
23746;DHT22;12053;48.878;9.632;2023-08-08T08:07:32;18.40;99.90
23746;DHT22;12053;48.878;9.632;2023-08-08T08:09:59;18.90;99.90
23746;DHT22;12053;48.878;9.632;2023-08-08T08:12:25;19.20;99.90
23746;DHT22;12053;48.878;9.632;2023-08-08T08:14:52;19.20;99.90
23746;DHT22;12053;48.878;9.632;2023-08-08T08:17:19;19.60;99.90
23746;DHT22;12053;48.878;9.632;2023-08-08T08:19:46;19.50;99.90
23746;DHT22;12053;48.878;9.632;2023-08-08T08:22:12;19.40;99.90
23746;DHT22;12053;48.878;9.632;2023-08-08T08:24:39;19.20;99.90
23746;DHT22;12053;48.878;9.632;2023-08-08T08:27:06;18.80;99.90
23746;DHT22;12053;48.878;9.632;2023-08-08T08:29:33;18.80;99.90
23746;DHT22;12053;48.878;9.632;2023-08-08T08:32:00;18.30;99.90
23746;DHT22;12053;48.878;9.632;2023-08-08T08:34:27;18.20;99.90
23746;DHT22;12053;48.878;9.632;2023-08-08T08:36:54;18.20;99.90
23746;DHT22;12053;48.878;9.632;2023-08-08T08:39:20;18.30;99.90
23746;DHT22;12053;48.878;9.632;2023-08-08T08:41:49;18.30;99.90
23746;DHT22;12053;48.878;9.632;2023-08-08T08:44:21;17.80;99.90
23746;DHT22;12053;48.878;9.632;2023-08-08T08:46:50;17.70;99.90
23746;DHT22;12053;48.878;9.632;2023-08-08T08:49:21;17.90;99.90
23746;DHT22;12053;48.878;9.632;2023-08-08T08:51:48;18.20;99.90
23746;DHT22;12053;48.878;9.632;2023-08-08T08:54:15;18.50;99.90
23746;DHT22;12053;48.878;9.632;2023-08-08T08:56:42;18.40;99.90
23746;DHT22;12053;48.878;9.632;2023-08-08T08:59:09;18.60;99.90
23746;DHT22;12053;48.878;9.632;2023-08-08T09:01:36;18.60;99.90
23746;DHT22;12053;48.878;9.632;2023-08-08T09:04:03;18.60;99.90
23746;DHT22;12053;48.878;9.632;2023-08-08T09:06:32;19.00;99.90
23746;DHT22;12053;48.878;9.632;2023-08-08T09:08:59;19.00;99.90
23746;DHT22;12053;48.878;9.632;2023-08-08T09:11:40;19.00;99.90
23746;DHT22;12053;48.878;9.632;2023-08-08T09:14:23;18.70;99.90
23746;DHT22;12053;48.878;9.632;2023-08-08T09:16:51;18.40;99.90
23746;DHT22;12053;48.878;9.632;2023-08-08T09:19:21;18.30;99.90
23746;DHT22;12053;48.878;9.632;2023-08-08T09:21:48;18.70;99.90
23746;DHT22;12053;48.878;9.632;2023-08-08T09:24:15;19.00;99.90
23746;DHT22;12053;48.878;9.632;2023-08-08T09:26:43;19.20;99.90
23746;DHT22;12053;48.878;9.632;2023-08-08T09:29:14;19.60;99.90
23746;DHT22;12053;48.878;9.632;2023-08-08T09:31:41;20.20;99.90
23746;DHT22;12053;48.878;9.632;2023-08-08T09:34:08;19.70;99.80
23746;DHT22;12053;48.878;9.632;2023-08-08T09:36:35;19.30;99.90
23746;DHT22;12053;48.878;9.632;2023-08-08T09:39:03;19.10;99.90
23746;DHT22;12053;48.878;9.632;2023-08-08T09:41:31;19.30;99.90
23746;DHT22;12053;48.878;9.632;2023-08-08T09:43:59;19.00;99.90
23746;DHT22;12053;48.878;9.632;2023-08-08T09:46:26;19.10;99.90
23746;DHT22;12053;48.878;9.632;2023-08-08T09:48:53;18.90;99.90
23746;DHT22;12053;48.878;9.632;2023-08-08T09:51:20;19.10;99.90
23746;DHT22;12053;48.878;9.632;2023-08-08T09:53:48;19.40;99.90
23746;DHT22;12053;48.878;9.632;2023-08-08T09:56:16;20.10;99.30
